createdAt,value
2019-01-08T00:02:06.851Z,13.20
2019-01-08T00:04:35.769Z,9.90
2019-01-08T00:07:04.782Z,8.37
2019-01-08T00:09:33.634Z,11.53
2019-01-08T00:12:02.541Z,9.33
2019-01-08T00:14:31.474Z,8.37
2019-01-08T00:17:00.400Z,7.10
2019-01-08T00:19:29.261Z,11.80
2019-01-08T00:21:58.126Z,8.30
2019-01-08T00:24:26.966Z,8.57
2019-01-08T00:26:55.809Z,10.43
2019-01-08T00:29:24.713Z,9.57
2019-01-08T00:31:53.542Z,9.93
2019-01-08T00:34:22.456Z,10.70
2019-01-08T00:36:51.401Z,9.77
2019-01-08T00:39:20.360Z,10.40
2019-01-08T00:41:49.287Z,8.57
2019-01-08T00:44:18.237Z,7.63
2019-01-08T00:46:47.073Z,8.43
2019-01-08T00:49:15.993Z,6.93
2019-01-08T00:51:44.853Z,8.93
2019-01-08T00:54:13.764Z,8.50
2019-01-08T00:56:42.675Z,6.77
2019-01-08T00:59:11.628Z,7.70
2019-01-08T01:01:40.545Z,9.10
2019-01-08T01:04:09.449Z,9.87
2019-01-08T01:06:38.429Z,7.73
2019-01-08T01:09:07.886Z,7.07
2019-01-08T01:11:36.877Z,7.87
2019-01-08T01:14:05.809Z,6.63
2019-01-08T01:16:34.726Z,8.47
2019-01-08T01:19:03.673Z,12.07
2019-01-08T01:21:32.532Z,5.87
2019-01-08T01:24:01.400Z,5.83
2019-01-08T01:26:30.592Z,6.27
2019-01-08T01:29:00.142Z,10.23
2019-01-08T01:31:29.154Z,6.60
2019-01-08T01:33:58.032Z,6.40
2019-01-08T01:36:26.981Z,6.50
2019-01-08T01:38:55.809Z,7.00
2019-01-08T01:41:24.726Z,7.70
2019-01-08T01:43:53.741Z,5.67
2019-01-08T01:46:22.662Z,4.70
2019-01-08T01:48:51.738Z,4.83
2019-01-08T01:51:20.686Z,6.80
2019-01-08T01:53:49.606Z,7.40
2019-01-08T01:56:18.593Z,5.57
2019-01-08T01:58:47.531Z,5.00
2019-01-08T02:01:16.437Z,4.73
2019-01-08T02:03:45.360Z,3.00
2019-01-08T02:06:14.290Z,5.00
2019-01-08T02:08:43.202Z,4.07
2019-01-08T02:11:12.192Z,5.70
2019-01-08T02:13:41.081Z,4.13
2019-01-08T02:16:09.921Z,3.80
2019-01-08T02:18:38.772Z,3.70
2019-01-08T02:21:07.772Z,3.43
2019-01-08T02:23:36.631Z,3.63
2019-01-08T02:26:05.574Z,4.37
2019-01-08T02:28:34.497Z,3.87
2019-01-08T02:31:03.430Z,5.87
2019-01-08T02:33:32.346Z,3.97
2019-01-08T02:36:01.286Z,4.00
2019-01-08T02:38:30.201Z,4.83
2019-01-08T02:40:59.041Z,3.33
2019-01-08T02:43:27.904Z,3.93
2019-01-08T02:45:56.775Z,4.13
2019-01-08T02:48:25.733Z,2.43
2019-01-08T02:50:54.743Z,3.37
2019-01-08T02:53:23.649Z,3.60
2019-01-08T02:55:52.503Z,4.07
2019-01-08T02:58:21.543Z,3.87
2019-01-08T03:00:50.458Z,4.77
2019-01-08T03:03:19.309Z,3.50
2019-01-08T03:05:48.246Z,5.13
2019-01-08T03:08:17.089Z,3.13
2019-01-08T03:10:46.010Z,3.30
2019-01-08T03:13:14.906Z,3.20
2019-01-08T03:15:43.890Z,4.90
2019-01-08T03:18:12.736Z,4.57
2019-01-08T03:20:41.615Z,3.77
2019-01-08T03:23:10.517Z,3.00
2019-01-08T03:25:39.367Z,2.70
2019-01-08T03:28:08.337Z,2.80
2019-01-08T03:30:37.237Z,5.13
2019-01-08T03:33:06.086Z,3.90
2019-01-08T03:35:35.021Z,3.60
2019-01-08T03:38:03.940Z,2.87
2019-01-08T03:40:32.776Z,2.57
2019-01-08T03:43:01.725Z,3.60
2019-01-08T03:45:30.557Z,3.23
2019-01-08T03:47:59.547Z,3.17
2019-01-08T03:50:28.502Z,11.13
2019-01-08T03:52:57.494Z,3.23
2019-01-08T03:55:26.416Z,3.50
2019-01-08T03:57:55.358Z,2.20
2019-01-08T04:00:24.345Z,2.30
2019-01-08T04:02:53.269Z,2.60
2019-01-08T04:05:22.124Z,2.53
2019-01-08T04:07:51.042Z,2.10
2019-01-08T04:10:19.977Z,2.13
2019-01-08T04:12:48.869Z,2.03
2019-01-08T04:15:17.785Z,3.70
2019-01-08T04:17:46.631Z,1.90
2019-01-08T04:20:15.657Z,2.00
2019-01-08T04:22:44.566Z,1.93
2019-01-08T04:25:13.484Z,2.30
2019-01-08T04:27:42.529Z,1.87
2019-01-08T04:30:11.529Z,1.80
2019-01-08T04:32:40.530Z,2.73
2019-01-08T04:35:09.766Z,2.70
2019-01-08T04:37:38.605Z,2.83
2019-01-08T04:40:07.552Z,2.20
2019-01-08T04:42:36.397Z,3.43
2019-01-08T04:45:05.560Z,3.13
2019-01-08T04:47:34.413Z,2.60
2019-01-08T04:50:03.414Z,2.03
2019-01-08T04:52:32.801Z,2.30
2019-01-08T04:55:01.710Z,2.37
2019-01-08T04:57:30.753Z,1.90
2019-01-08T04:59:59.676Z,2.60
2019-01-08T05:02:28.593Z,2.50
2019-01-08T05:04:57.684Z,3.33
2019-01-08T05:07:26.597Z,1.73
2019-01-08T05:09:55.437Z,3.40
2019-01-08T05:12:24.371Z,2.33
2019-01-08T05:14:53.288Z,2.40
2019-01-08T05:17:22.138Z,3.20
2019-01-08T05:19:51.405Z,2.60
2019-01-08T05:22:20.238Z,2.13
2019-01-08T05:24:49.161Z,1.87
2019-01-08T05:27:18.022Z,2.37
2019-01-08T05:29:46.944Z,2.10
2019-01-08T05:32:16.417Z,2.03
2019-01-08T05:34:45.294Z,1.77
2019-01-08T05:37:14.152Z,4.87
2019-01-08T05:39:42.994Z,2.13
2019-01-08T05:42:11.851Z,3.60
2019-01-08T05:44:40.701Z,2.40
2019-01-08T05:47:09.910Z,2.27
2019-01-08T05:49:38.956Z,1.90
2019-01-08T05:52:08.028Z,2.70
2019-01-08T05:54:36.865Z,5.40
2019-01-08T05:57:05.806Z,2.77
2019-01-08T05:59:34.724Z,4.40
2019-01-08T06:02:03.641Z,2.83
2019-01-08T06:04:32.554Z,2.73
2019-01-08T06:07:01.793Z,2.73
2019-01-08T06:09:30.714Z,2.87
2019-01-08T06:11:59.715Z,4.20
2019-01-08T06:14:28.565Z,4.70
2019-01-08T06:16:57.575Z,3.63
2019-01-08T06:19:26.465Z,3.93
2019-01-08T06:21:55.368Z,6.63
2019-01-08T06:24:24.405Z,3.20
2019-01-08T06:26:54.056Z,4.60
2019-01-08T06:29:22.898Z,4.17
2019-01-08T06:31:51.733Z,5.23
2019-01-08T06:34:20.641Z,3.27
2019-01-08T06:36:49.561Z,3.70
2019-01-08T06:39:18.467Z,5.60
2019-01-08T06:41:47.321Z,3.43
2019-01-08T06:44:16.152Z,4.03
2019-01-08T06:46:45.070Z,5.20
2019-01-08T06:49:14.090Z,7.33
2019-01-08T06:51:42.920Z,3.63
2019-01-08T06:54:11.760Z,5.93
2019-01-08T06:56:40.693Z,4.47
2019-01-08T06:59:09.593Z,4.10
2019-01-08T07:01:38.508Z,4.03
2019-01-08T07:04:07.530Z,5.60
2019-01-08T07:06:36.449Z,4.50
2019-01-08T07:09:06.884Z,4.70
2019-01-08T07:11:35.829Z,7.47
2019-01-08T07:14:04.866Z,2.97
2019-01-08T07:16:33.845Z,3.53
2019-01-08T07:19:02.799Z,8.33
2019-01-08T07:21:31.784Z,4.40
2019-01-08T07:24:00.625Z,3.63
2019-01-08T07:26:29.770Z,3.77
2019-01-08T07:28:58.618Z,7.13
2019-01-08T07:31:27.718Z,4.00
2019-01-08T07:33:56.640Z,4.30
2019-01-08T07:36:25.645Z,5.37
2019-01-08T07:38:54.514Z,3.37
2019-01-08T07:41:23.517Z,3.73
2019-01-08T07:43:52.453Z,4.17
2019-01-08T07:46:21.364Z,6.27
2019-01-08T07:48:50.297Z,5.10
2019-01-08T07:51:19.232Z,4.03
2019-01-08T07:53:48.072Z,3.57
2019-01-08T07:56:17.085Z,4.17
2019-01-08T07:58:46.013Z,4.30
2019-01-08T08:01:14.941Z,4.70
2019-01-08T08:03:43.850Z,4.63
2019-01-08T08:06:12.677Z,6.50
2019-01-08T08:08:41.521Z,5.17
2019-01-08T08:11:10.492Z,3.10
2019-01-08T08:13:39.417Z,5.40
2019-01-08T08:16:08.408Z,4.70
2019-01-08T08:18:37.644Z,5.83
2019-01-08T08:21:06.652Z,4.03
2019-01-08T08:23:35.584Z,5.00
2019-01-08T08:26:04.522Z,4.07
2019-01-08T08:28:33.379Z,3.90
2019-01-08T08:31:02.298Z,4.33
2019-01-08T08:33:31.142Z,4.93
2019-01-08T08:35:59.986Z,6.50
2019-01-08T08:38:28.833Z,5.70
2019-01-08T08:40:57.925Z,5.60
2019-01-08T08:43:26.764Z,5.80
2019-01-08T08:45:55.731Z,5.30
2019-01-08T08:48:24.674Z,6.10
2019-01-08T08:50:53.742Z,9.87
2019-01-08T08:53:22.721Z,9.07
2019-01-08T08:55:51.650Z,7.27
2019-01-08T08:58:20.629Z,5.27
2019-01-08T09:00:49.781Z,4.80
2019-01-08T09:03:18.780Z,5.90
2019-01-08T09:05:47.897Z,3.30
2019-01-08T09:08:17.205Z,8.23
2019-01-08T09:10:46.152Z,3.43
2019-01-08T09:13:15.138Z,3.77
2019-01-08T09:15:44.295Z,4.50
2019-01-08T09:18:13.319Z,6.03
2019-01-08T09:20:42.321Z,6.43
2019-01-08T09:23:11.164Z,6.23
2019-01-08T09:25:40.261Z,6.60
2019-01-08T09:28:09.113Z,6.97
2019-01-08T09:30:38.100Z,6.17
2019-01-08T09:33:07.385Z,10.13
2019-01-08T09:35:36.517Z,8.27
2019-01-08T09:38:05.513Z,9.17
2019-01-08T09:40:34.453Z,8.57
2019-01-08T09:43:03.579Z,12.73
2019-01-08T09:45:32.427Z,6.07
2019-01-08T09:48:01.361Z,8.40
2019-01-08T09:50:30.265Z,10.33
2019-01-08T09:52:59.113Z,13.23
2019-01-08T09:55:28.134Z,27.67
2019-01-08T09:57:57.242Z,13.83
2019-01-08T10:00:26.261Z,9.63
2019-01-08T10:02:55.101Z,9.43
2019-01-08T10:05:24.101Z,5.97
2019-01-08T10:07:53.020Z,5.43
2019-01-08T10:10:21.977Z,6.47
2019-01-08T10:12:50.909Z,16.37
2019-01-08T10:15:19.888Z,5.93
2019-01-08T10:17:48.829Z,8.07
2019-01-08T10:20:17.745Z,7.17
2019-01-08T10:22:46.661Z,24.63
2019-01-08T10:25:21.124Z,18.23
2019-01-08T10:27:53.377Z,15.30
2019-01-08T10:30:22.393Z,12.00
2019-01-08T10:32:51.406Z,12.63
2019-01-08T10:35:20.398Z,16.23
2019-01-08T10:37:49.408Z,10.53
2019-01-08T10:40:18.370Z,6.97
2019-01-08T10:42:47.301Z,8.20
2019-01-08T10:45:16.221Z,15.83
2019-01-08T10:47:45.173Z,8.87
2019-01-08T10:50:14.172Z,8.13
2019-01-08T10:52:43.167Z,7.23
2019-01-08T10:55:12.231Z,14.43
2019-01-08T10:57:41.073Z,10.33
2019-01-08T11:00:11.140Z,8.53
2019-01-08T11:02:40.086Z,11.20
2019-01-08T11:05:09.009Z,6.30
2019-01-08T11:07:37.938Z,10.80
2019-01-08T11:10:07.318Z,14.00
2019-01-08T11:12:36.565Z,7.53
2019-01-08T11:15:06.073Z,5.90
2019-01-08T11:17:34.962Z,7.47
2019-01-08T11:20:03.964Z,7.10
2019-01-08T11:22:32.822Z,9.63
2019-01-08T11:25:01.849Z,6.70
2019-01-08T11:27:30.781Z,12.53
2019-01-08T11:29:59.635Z,9.80
2019-01-08T11:32:28.602Z,13.23
2019-01-08T11:34:57.465Z,12.53
2019-01-08T11:37:26.382Z,12.10
2019-01-08T11:39:55.247Z,8.67
2019-01-08T11:42:24.092Z,14.73
2019-01-08T11:44:52.975Z,7.53
2019-01-08T11:47:21.845Z,11.53
2019-01-08T11:49:50.765Z,9.60
2019-01-08T11:52:19.692Z,7.63
2019-01-08T11:54:48.708Z,9.10
2019-01-08T11:57:17.630Z,11.30
2019-01-08T11:59:48.267Z,11.97
2019-01-08T12:02:17.259Z,8.70
2019-01-08T12:04:46.189Z,11.03
2019-01-08T12:07:15.345Z,10.17
2019-01-08T12:09:44.374Z,19.63
2019-01-08T12:12:13.294Z,7.97
2019-01-08T12:14:42.223Z,11.27
2019-01-08T12:17:11.440Z,9.57
2019-01-08T12:19:40.432Z,13.23
2019-01-08T12:22:09.355Z,11.43
2019-01-08T12:24:38.337Z,11.33
2019-01-08T12:27:07.192Z,12.87
2019-01-08T12:29:36.093Z,9.90
2019-01-08T12:32:06.254Z,14.53
2019-01-08T12:34:35.833Z,11.90
2019-01-08T12:37:04.825Z,15.80
2019-01-08T12:39:33.775Z,14.03
2019-01-08T12:42:02.701Z,16.83
2019-01-08T12:44:31.860Z,13.80
2019-01-08T12:47:00.805Z,13.27
2019-01-08T12:49:29.721Z,22.93
2019-01-08T12:51:58.704Z,19.97
2019-01-08T12:54:27.806Z,29.20
2019-01-08T12:56:56.646Z,9.40
2019-01-08T12:59:25.865Z,14.93
2019-01-08T13:01:54.801Z,18.10
2019-01-08T13:04:23.796Z,11.30
2019-01-08T13:06:52.720Z,10.60
2019-01-08T13:09:21.647Z,21.80
2019-01-08T13:11:50.645Z,26.27
2019-01-08T13:14:19.630Z,13.30
2019-01-08T13:16:48.663Z,17.43
2019-01-08T13:19:17.649Z,26.33
2019-01-08T13:21:46.561Z,22.70
2019-01-08T13:24:15.425Z,18.73
2019-01-08T13:26:44.273Z,18.03
2019-01-08T13:29:13.202Z,21.73
2019-01-08T13:31:42.383Z,22.17
2019-01-08T13:34:11.232Z,17.10
2019-01-08T13:36:40.162Z,12.30
2019-01-08T13:39:09.095Z,19.57
2019-01-08T13:41:38.005Z,14.53
2019-01-08T13:44:06.922Z,9.30
2019-01-08T13:46:35.847Z,14.63
2019-01-08T13:49:04.789Z,16.03
2019-01-08T13:51:33.810Z,15.80
2019-01-08T13:54:02.832Z,6.00
2019-01-08T13:56:31.794Z,13.27
2019-01-08T13:59:00.705Z,14.07
2019-01-08T14:01:29.569Z,13.23
2019-01-08T14:03:59.098Z,11.47
2019-01-08T14:06:28.022Z,8.70
2019-01-08T14:08:56.889Z,9.50
2019-01-08T14:11:26.305Z,14.37
2019-01-08T14:13:55.172Z,11.00
2019-01-08T14:16:24.178Z,7.77
2019-01-08T14:18:53.254Z,15.70
2019-01-08T14:21:22.205Z,24.30
2019-01-08T14:23:51.153Z,10.70
2019-01-08T14:26:20.274Z,10.13
2019-01-08T14:28:49.207Z,8.97
2019-01-08T14:31:18.415Z,7.27
2019-01-08T14:33:47.428Z,12.13
2019-01-08T14:36:16.433Z,18.83
2019-01-08T14:38:45.429Z,21.80
2019-01-08T14:41:14.353Z,17.17
2019-01-08T14:43:43.274Z,23.20
2019-01-08T14:46:12.197Z,13.27
2019-01-08T14:48:41.130Z,15.90
2019-01-08T14:51:10.094Z,17.53
2019-01-08T14:53:39.189Z,16.80
2019-01-08T14:56:08.232Z,9.03
2019-01-08T14:58:37.213Z,12.57
2019-01-08T15:01:06.237Z,12.47
2019-01-08T15:03:35.384Z,24.37
2019-01-08T15:06:04.394Z,15.33
2019-01-08T15:08:33.333Z,16.27
2019-01-08T15:11:02.249Z,12.80
2019-01-08T15:13:31.174Z,13.67
2019-01-08T15:16:00.442Z,16.60
2019-01-08T15:18:29.285Z,9.17
2019-01-08T15:20:58.210Z,9.10
2019-01-08T15:23:27.093Z,9.40
2019-01-08T15:25:56.017Z,11.63
2019-01-08T15:28:24.861Z,8.37
2019-01-08T15:30:53.797Z,6.30
2019-01-08T15:33:23.077Z,8.60
2019-01-08T15:35:52.374Z,36.17
2019-01-08T15:38:21.302Z,10.33
2019-01-08T15:40:50.352Z,12.17
2019-01-08T15:43:19.346Z,12.47
2019-01-08T15:45:48.234Z,18.20
2019-01-08T15:48:17.381Z,17.63
2019-01-08T15:50:46.304Z,11.63
2019-01-08T15:53:15.573Z,11.93
2019-01-08T15:55:44.657Z,9.30
2019-01-08T15:58:13.597Z,15.00
2019-01-08T16:00:42.632Z,10.70
2019-01-08T16:03:11.477Z,8.50
2019-01-08T16:05:40.389Z,6.00
2019-01-08T16:08:09.434Z,13.00
2019-01-08T16:10:38.273Z,7.70
2019-01-08T16:13:07.748Z,12.80
2019-01-08T16:15:36.985Z,14.90
2019-01-08T16:18:05.914Z,7.30
2019-01-08T16:20:34.830Z,11.20
2019-01-08T16:23:03.772Z,16.93
2019-01-08T16:25:32.658Z,6.30
2019-01-08T16:28:01.506Z,15.13
2019-01-08T16:30:30.445Z,12.20
2019-01-08T16:32:59.633Z,10.00
2019-01-08T16:35:28.841Z,9.77
2019-01-08T16:37:57.873Z,13.30
2019-01-08T16:40:26.877Z,9.27
2019-01-08T16:42:55.737Z,10.80
2019-01-08T16:45:24.907Z,13.17
2019-01-08T16:47:54.269Z,11.83
2019-01-08T16:50:23.194Z,17.60
2019-01-08T16:52:52.281Z,20.43
2019-01-08T16:55:21.274Z,8.47
2019-01-08T16:57:50.124Z,11.83
2019-01-08T17:00:19.134Z,14.43
2019-01-08T17:02:47.982Z,11.67
2019-01-08T17:05:16.982Z,14.13
2019-01-08T17:08:11.040Z,15.07
2019-01-08T17:10:40.066Z,15.70
2019-01-08T17:13:09.186Z,12.97
2019-01-08T17:15:38.534Z,12.17
2019-01-08T17:18:07.444Z,17.07
2019-01-08T17:20:36.365Z,9.20
2019-01-08T17:23:04.804Z,8.83
2019-01-08T17:25:33.724Z,12.83
2019-01-08T17:28:04.386Z,17.00
2019-01-08T17:30:33.461Z,23.33
2019-01-08T17:33:02.388Z,18.87
2019-01-08T17:35:31.314Z,14.10
2019-01-08T17:38:00.268Z,12.67
2019-01-08T17:40:29.173Z,25.10
2019-01-08T17:42:58.258Z,22.93
2019-01-08T17:45:27.118Z,13.43
2019-01-08T17:47:55.948Z,7.83
2019-01-08T17:50:24.986Z,15.27
2019-01-08T17:52:53.929Z,14.83
2019-01-08T17:55:22.916Z,6.60
2019-01-08T17:58:12.562Z,10.30
2019-01-08T18:00:43.101Z,5.30
2019-01-08T18:03:11.945Z,13.50
2019-01-08T18:05:40.894Z,13.70
2019-01-08T18:08:09.734Z,15.83
2019-01-08T18:10:38.593Z,11.40
2019-01-08T18:13:07.500Z,12.37
2019-01-08T18:15:36.446Z,13.87
2019-01-08T18:18:05.359Z,22.23
2019-01-08T18:20:34.225Z,12.33
2019-01-08T18:23:03.217Z,19.63
2019-01-08T18:25:32.150Z,10.80
2019-01-08T18:28:01.152Z,17.00
2019-01-08T18:30:30.140Z,9.03
2019-01-08T18:32:59.301Z,9.43
2019-01-08T18:35:28.396Z,12.13
2019-01-08T18:37:57.421Z,14.93
2019-01-08T18:40:26.277Z,15.30
2019-01-08T18:42:55.156Z,16.10
2019-01-08T18:45:24.086Z,7.67
2019-01-08T18:47:53.311Z,15.17
2019-01-08T18:50:22.363Z,10.43
2019-01-08T18:52:51.249Z,10.73
2019-01-08T18:55:20.225Z,9.80
2019-01-08T18:57:49.481Z,8.90
2019-01-08T19:00:20.156Z,6.60
2019-01-08T19:02:49.182Z,11.47
2019-01-08T19:05:18.445Z,9.73
2019-01-08T19:07:47.581Z,9.20
2019-01-08T19:10:17.262Z,10.13
2019-01-08T19:12:47.623Z,21.97
2019-01-08T19:15:21.172Z,11.83
2019-01-08T19:17:51.502Z,17.40
2019-01-08T19:20:22.640Z,16.57
2019-01-08T19:22:51.945Z,16.47
2019-01-08T19:25:21.563Z,8.33
2019-01-08T19:27:50.881Z,17.03
2019-01-08T19:30:19.835Z,8.23
2019-01-08T19:32:48.798Z,13.73
2019-01-08T19:35:17.813Z,23.97
2019-01-08T19:37:46.801Z,10.03
2019-01-08T19:40:16.415Z,16.57
2019-01-08T19:42:47.101Z,16.07
2019-01-08T19:45:16.325Z,17.77
2019-01-08T19:47:45.344Z,28.63
2019-01-08T19:50:14.711Z,15.10
2019-01-08T19:52:43.629Z,9.07
2019-01-08T19:55:12.631Z,21.93
2019-01-08T19:57:41.627Z,20.93
2019-01-08T20:00:12.113Z,27.00
2019-01-08T20:02:41.585Z,28.40
2019-01-08T20:05:10.608Z,13.67
2019-01-08T20:07:39.690Z,28.13
2019-01-08T20:10:09.220Z,24.87
2019-01-08T20:12:38.433Z,15.03
2019-01-08T20:15:12.356Z,15.20
2019-01-08T20:17:41.401Z,8.60
2019-01-08T20:20:11.149Z,12.00
2019-01-08T20:22:40.464Z,7.27
2019-01-08T20:25:09.525Z,7.10
2019-01-08T20:27:38.478Z,12.87
2019-01-08T20:30:07.746Z,17.67
2019-01-08T20:32:36.669Z,8.43
2019-01-08T20:35:05.909Z,9.67
2019-01-08T20:37:34.757Z,12.00
2019-01-08T20:40:04.218Z,16.43
2019-01-08T20:42:33.131Z,16.80
2019-01-08T20:45:02.341Z,10.27
2019-01-08T20:47:31.253Z,11.30
2019-01-08T20:50:00.191Z,15.47
2019-01-08T20:52:29.285Z,9.00
2019-01-08T20:54:58.222Z,16.33
2019-01-08T20:57:27.122Z,26.67
2019-01-08T20:59:56.150Z,8.67
2019-01-08T21:02:24.989Z,24.30
2019-01-08T21:04:53.989Z,9.33
2019-01-08T21:07:22.925Z,15.10
2019-01-08T21:09:51.764Z,13.30
2019-01-08T21:12:20.753Z,12.57
2019-01-08T21:14:49.629Z,12.37
2019-01-08T21:17:18.545Z,12.73
2019-01-08T21:19:47.394Z,13.03
2019-01-08T21:22:18.513Z,7.10
2019-01-08T21:24:47.650Z,15.30
2019-01-08T21:27:16.803Z,17.43
2019-01-08T21:29:45.731Z,16.47
2019-01-08T21:32:14.735Z,8.10
2019-01-08T21:34:44.490Z,5.33
2019-01-08T21:37:13.797Z,8.37
2019-01-08T21:39:42.722Z,15.10
2019-01-08T21:42:11.633Z,9.80
2019-01-08T21:44:40.650Z,14.50
2019-01-08T21:47:09.568Z,8.17
2019-01-08T21:49:38.489Z,4.70
2019-01-08T21:52:07.677Z,8.60
2019-01-08T21:54:36.593Z,7.00
2019-01-08T21:57:05.590Z,16.33
2019-01-08T21:59:34.700Z,8.97
2019-01-08T22:02:03.692Z,4.70
2019-01-08T22:04:32.993Z,6.90
2019-01-08T22:07:02.225Z,9.83
2019-01-08T22:09:31.142Z,6.77
2019-01-08T22:12:00.133Z,6.47
2019-01-08T22:14:29.072Z,11.73
2019-01-08T22:16:58.002Z,8.70
2019-01-08T22:19:26.917Z,15.23
2019-01-08T22:21:55.849Z,10.20
2019-01-08T22:24:24.774Z,15.60
2019-01-08T22:26:53.684Z,8.43
2019-01-08T22:29:22.693Z,16.50
2019-01-08T22:31:51.960Z,8.17
2019-01-08T22:34:21.630Z,7.17
2019-01-08T22:36:50.560Z,10.60
2019-01-08T22:39:19.479Z,8.43
2019-01-08T22:41:48.570Z,11.20
2019-01-08T22:44:17.425Z,10.03
2019-01-08T22:46:46.353Z,10.13
2019-01-08T22:49:15.260Z,6.97
2019-01-08T22:51:44.340Z,6.27
2019-01-08T22:54:13.345Z,11.03
2019-01-08T22:56:42.528Z,11.33
2019-01-08T22:59:11.550Z,15.57
2019-01-08T23:01:42.514Z,6.70
2019-01-08T23:04:12.706Z,7.07
2019-01-08T23:06:41.747Z,12.13
2019-01-08T23:09:11.741Z,19.93
2019-01-08T23:11:40.824Z,12.83
2019-01-08T23:14:10.247Z,20.30
2019-01-08T23:16:39.600Z,6.70
2019-01-08T23:19:08.816Z,7.70
2019-01-08T23:21:39.948Z,15.77
2019-01-08T23:24:08.544Z,11.33
2019-01-08T23:26:37.465Z,13.10
2019-01-08T23:29:06.462Z,7.70
2019-01-08T23:31:35.677Z,11.83
2019-01-08T23:34:04.893Z,16.73
2019-01-08T23:36:33.929Z,9.30
2019-01-08T23:39:02.993Z,8.80
2019-01-08T23:41:32.000Z,11.93
2019-01-08T23:44:01.022Z,9.73
2019-01-08T23:46:30.033Z,8.33
2019-01-08T23:48:59.025Z,12.30
2019-01-08T23:51:28.033Z,17.47
2019-01-08T23:53:58.026Z,10.10
2019-01-08T23:56:27.725Z,10.33
2019-01-08T23:58:56.720Z,8.00
